sensor_id;sensor_type;location;lat;lon;timestamp;temperature;humidity
63094;DHT22;49183;51.380;0.098;2022-07-23T00:00:20;15.80;89.00
63094;DHT22;49183;51.380;0.098;2022-07-23T00:03:26;15.80;89.10
63094;DHT22;49183;51.380;0.098;2022-07-23T00:06:28;15.80;89.10
63094;DHT22;49183;51.380;0.098;2022-07-23T00:09:29;15.80;89.10
63094;DHT22;49183;51.380;0.098;2022-07-23T00:12:30;15.80;89.20
63094;DHT22;49183;51.380;0.098;2022-07-23T00:15:38;15.90;89.30
63094;DHT22;49183;51.380;0.098;2022-07-23T00:18:39;15.80;89.30
63094;DHT22;49183;51.380;0.098;2022-07-23T00:21:40;15.80;89.30
63094;DHT22;49183;51.380;0.098;2022-07-23T00:24:41;15.80;89.40
63094;DHT22;49183;51.380;0.098;2022-07-23T00:28:02;15.80;89.50
63094;DHT22;49183;51.380;0.098;2022-07-23T00:31:04;15.80;89.50
63094;DHT22;49183;51.380;0.098;2022-07-23T00:34:05;15.80;89.50
63094;DHT22;49183;51.380;0.098;2022-07-23T00:37:06;15.80;89.60
63094;DHT22;49183;51.380;0.098;2022-07-23T00:40:07;15.80;89.70
63094;DHT22;49183;51.380;0.098;2022-07-23T00:43:09;15.80;89.70
63094;DHT22;49183;51.380;0.098;2022-07-23T00:46:10;15.80;89.80
63094;DHT22;49183;51.380;0.098;2022-07-23T00:49:11;15.80;89.80
63094;DHT22;49183;51.380;0.098;2022-07-23T00:52:12;15.80;89.80
63094;DHT22;49183;51.380;0.098;2022-07-23T00:55:13;15.80;89.90
63094;DHT22;49183;51.380;0.098;2022-07-23T00:58:14;15.80;89.90
63094;DHT22;49183;51.380;0.098;2022-07-23T01:01:16;15.80;89.90
63094;DHT22;49183;51.380;0.098;2022-07-23T01:04:17;15.80;90.00
63094;DHT22;49183;51.380;0.098;2022-07-23T01:07:18;15.80;90.00
63094;DHT22;49183;51.380;0.098;2022-07-23T01:10:20;15.80;90.10
63094;DHT22;49183;51.380;0.098;2022-07-23T01:13:27;15.80;90.10
63094;DHT22;49183;51.380;0.098;2022-07-23T01:16:28;15.80;90.10
63094;DHT22;49183;51.380;0.098;2022-07-23T01:19:29;15.80;90.20
63094;DHT22;49183;51.380;0.098;2022-07-23T01:22:30;15.80;90.20
63094;DHT22;49183;51.380;0.098;2022-07-23T01:25:31;15.80;90.20
63094;DHT22;49183;51.380;0.098;2022-07-23T01:28:32;15.80;90.30
63094;DHT22;49183;51.380;0.098;2022-07-23T01:31:33;15.80;90.30
63094;DHT22;49183;51.380;0.098;2022-07-23T01:34:27;15.80;90.30
63094;DHT22;49183;51.380;0.098;2022-07-23T01:37:28;15.80;90.40
63094;DHT22;49183;51.380;0.098;2022-07-23T01:40:30;15.80;90.50
63094;DHT22;49183;51.380;0.098;2022-07-23T01:43:32;15.80;90.50
63094;DHT22;49183;51.380;0.098;2022-07-23T01:46:33;15.70;90.50
63094;DHT22;49183;51.380;0.098;2022-07-23T01:49:34;15.70;90.50
63094;DHT22;49183;51.380;0.098;2022-07-23T01:52:55;15.70;90.50
63094;DHT22;49183;51.380;0.098;2022-07-23T01:55:56;15.60;90.50
63094;DHT22;49183;51.380;0.098;2022-07-23T01:58:58;15.50;90.60
63094;DHT22;49183;51.380;0.098;2022-07-23T02:01:59;15.40;90.70
63094;DHT22;49183;51.380;0.098;2022-07-23T02:05:00;15.40;90.70
63094;DHT22;49183;51.380;0.098;2022-07-23T02:08:01;15.40;90.80
63094;DHT22;49183;51.380;0.098;2022-07-23T02:11:02;15.40;90.70
63094;DHT22;49183;51.380;0.098;2022-07-23T02:14:03;15.40;90.80
63094;DHT22;49183;51.380;0.098;2022-07-23T02:17:04;15.40;90.80
63094;DHT22;49183;51.380;0.098;2022-07-23T02:20:06;15.40;90.70
63094;DHT22;49183;51.380;0.098;2022-07-23T02:23:07;15.40;90.70
63094;DHT22;49183;51.380;0.098;2022-07-23T02:26:08;15.30;90.70
63094;DHT22;49183;51.380;0.098;2022-07-23T02:29:09;15.30;90.70
63094;DHT22;49183;51.380;0.098;2022-07-23T02:32:10;15.30;90.70
63094;DHT22;49183;51.380;0.098;2022-07-23T02:35:11;15.30;90.70
63094;DHT22;49183;51.380;0.098;2022-07-23T02:38:14;15.30;90.70
63094;DHT22;49183;51.380;0.098;2022-07-23T02:41:15;15.30;90.70
63094;DHT22;49183;51.380;0.098;2022-07-23T02:44:16;15.30;90.70
63094;DHT22;49183;51.380;0.098;2022-07-23T02:47:17;15.30;90.70
63094;DHT22;49183;51.380;0.098;2022-07-23T02:50:18;15.30;90.70
63094;DHT22;49183;51.380;0.098;2022-07-23T02:53:19;15.30;90.70
63094;DHT22;49183;51.380;0.098;2022-07-23T02:56:21;15.30;90.70
63094;DHT22;49183;51.380;0.098;2022-07-23T02:59:22;15.30;90.70
63094;DHT22;49183;51.380;0.098;2022-07-23T03:02:23;15.30;90.70
63094;DHT22;49183;51.380;0.098;2022-07-23T03:05:24;15.30;90.70
63094;DHT22;49183;51.380;0.098;2022-07-23T03:08:25;15.30;90.70
63094;DHT22;49183;51.380;0.098;2022-07-23T03:11:27;15.30;90.70
63094;DHT22;49183;51.380;0.098;2022-07-23T03:14:28;15.30;90.70
63094;DHT22;49183;51.380;0.098;2022-07-23T03:17:29;15.30;90.60
63094;DHT22;49183;51.380;0.098;2022-07-23T03:20:30;15.10;90.60
63094;DHT22;49183;51.380;0.098;2022-07-23T03:23:32;15.10;90.70
63094;DHT22;49183;51.380;0.098;2022-07-23T03:26:33;15.00;90.80
63094;DHT22;49183;51.380;0.098;2022-07-23T03:29:34;15.00;90.80
63094;DHT22;49183;51.380;0.098;2022-07-23T03:32:36;14.90;90.90
63094;DHT22;49183;51.380;0.098;2022-07-23T03:35:37;14.90;90.80
63094;DHT22;49183;51.380;0.098;2022-07-23T03:38:41;14.90;90.80
63094;DHT22;49183;51.380;0.098;2022-07-23T03:41:42;14.90;90.80
63094;DHT22;49183;51.380;0.098;2022-07-23T03:44:43;14.90;90.80
63094;DHT22;49183;51.380;0.098;2022-07-23T03:47:45;14.90;90.80
63094;DHT22;49183;51.380;0.098;2022-07-23T03:50:46;14.90;90.80
63094;DHT22;49183;51.380;0.098;2022-07-23T03:53:47;14.90;90.80
63094;DHT22;49183;51.380;0.098;2022-07-23T03:56:49;14.90;90.70
63094;DHT22;49183;51.380;0.098;2022-07-23T03:59:52;14.90;90.70
63094;DHT22;49183;51.380;0.098;2022-07-23T04:02:53;14.80;90.70
63094;DHT22;49183;51.380;0.098;2022-07-23T04:05:55;14.80;90.60
63094;DHT22;49183;51.380;0.098;2022-07-23T04:08:56;14.90;90.60
63094;DHT22;49183;51.380;0.098;2022-07-23T04:11:57;14.80;90.60
63094;DHT22;49183;51.380;0.098;2022-07-23T04:14:58;14.80;90.60
63094;DHT22;49183;51.380;0.098;2022-07-23T04:17:59;14.80;90.50
63094;DHT22;49183;51.380;0.098;2022-07-23T04:21:07;14.70;90.50
63094;DHT22;49183;51.380;0.098;2022-07-23T04:24:08;14.70;90.50
63094;DHT22;49183;51.380;0.098;2022-07-23T04:27:09;14.70;90.50
63094;DHT22;49183;51.380;0.098;2022-07-23T04:30:10;14.70;90.50
63094;DHT22;49183;51.380;0.098;2022-07-23T04:33:11;14.60;90.50
63094;DHT22;49183;51.380;0.098;2022-07-23T04:36:15;14.60;90.50
63094;DHT22;49183;51.380;0.098;2022-07-23T04:39:09;14.50;90.50
63094;DHT22;49183;51.380;0.098;2022-07-23T04:42:03;14.50;90.60
63094;DHT22;49183;51.380;0.098;2022-07-23T04:45:04;14.40;90.60
63094;DHT22;49183;51.380;0.098;2022-07-23T04:48:05;14.40;90.70
63094;DHT22;49183;51.380;0.098;2022-07-23T04:51:16;14.40;90.70
63094;DHT22;49183;51.380;0.098;2022-07-23T04:54:17;14.40;90.70
63094;DHT22;49183;51.380;0.098;2022-07-23T04:57:18;14.40;90.70
63094;DHT22;49183;51.380;0.098;2022-07-23T05:00:19;14.40;90.80
63094;DHT22;49183;51.380;0.098;2022-07-23T05:03:20;14.40;90.80
63094;DHT22;49183;51.380;0.098;2022-07-23T05:06:21;14.40;90.80
63094;DHT22;49183;51.380;0.098;2022-07-23T05:09:22;14.30;90.90
63094;DHT22;49183;51.380;0.098;2022-07-23T05:12:23;14.30;90.90
63094;DHT22;49183;51.380;0.098;2022-07-23T05:15:24;14.30;91.00
63094;DHT22;49183;51.380;0.098;2022-07-23T05:18:25;14.30;91.00
63094;DHT22;49183;51.380;0.098;2022-07-23T05:21:26;14.40;91.00
63094;DHT22;49183;51.380;0.098;2022-07-23T05:24:27;14.40;90.90
63094;DHT22;49183;51.380;0.098;2022-07-23T05:27:28;14.50;90.90
63094;DHT22;49183;51.380;0.098;2022-07-23T05:30:29;14.60;90.90
63094;DHT22;49183;51.380;0.098;2022-07-23T05:33:31;14.80;90.90
63094;DHT22;49183;51.380;0.098;2022-07-23T05:36:32;14.80;90.80
63094;DHT22;49183;51.380;0.098;2022-07-23T05:39:33;14.90;90.70
63094;DHT22;49183;51.380;0.098;2022-07-23T05:42:39;15.10;90.50
63094;DHT22;49183;51.380;0.098;2022-07-23T05:45:40;15.10;90.40
63094;DHT22;49183;51.380;0.098;2022-07-23T05:48:42;15.30;90.30
63094;DHT22;49183;51.380;0.098;2022-07-23T05:52:09;15.40;90.20
63094;DHT22;49183;51.380;0.098;2022-07-23T05:55:33;15.60;90.00
63094;DHT22;49183;51.380;0.098;2022-07-23T05:58:34;15.70;89.90
63094;DHT22;49183;51.380;0.098;2022-07-23T06:01:35;15.80;89.70
63094;DHT22;49183;51.380;0.098;2022-07-23T06:04:36;16.00;89.50
63094;DHT22;49183;51.380;0.098;2022-07-23T06:07:43;16.10;89.30
63094;DHT22;49183;51.380;0.098;2022-07-23T06:10:44;16.20;89.00
63094;DHT22;49183;51.380;0.098;2022-07-23T06:13:45;16.20;88.80
63094;DHT22;49183;51.380;0.098;2022-07-23T06:16:59;16.10;88.80
63094;DHT22;49183;51.380;0.098;2022-07-23T06:20:00;16.10;88.70
63094;DHT22;49183;51.380;0.098;2022-07-23T06:23:01;16.00;88.60
63094;DHT22;49183;51.380;0.098;2022-07-23T06:26:02;15.90;88.70
63094;DHT22;49183;51.380;0.098;2022-07-23T06:29:03;15.80;88.80
63094;DHT22;49183;51.380;0.098;2022-07-23T06:32:04;15.90;88.90
63094;DHT22;49183;51.380;0.098;2022-07-23T06:35:05;15.90;88.80
63094;DHT22;49183;51.380;0.098;2022-07-23T06:38:06;15.90;88.80
63094;DHT22;49183;51.380;0.098;2022-07-23T06:41:07;16.00;88.80
63094;DHT22;49183;51.380;0.098;2022-07-23T06:44:08;16.10;88.70
63094;DHT22;49183;51.380;0.098;2022-07-23T06:47:09;16.10;88.60
63094;DHT22;49183;51.380;0.098;2022-07-23T06:50:10;16.10;88.50
63094;DHT22;49183;51.380;0.098;2022-07-23T06:53:11;16.10;88.50
63094;DHT22;49183;51.380;0.098;2022-07-23T06:56:12;16.10;88.60
63094;DHT22;49183;51.380;0.098;2022-07-23T06:59:13;16.20;88.50
63094;DHT22;49183;51.380;0.098;2022-07-23T07:02:14;16.40;88.30
63094;DHT22;49183;51.380;0.098;2022-07-23T07:05:15;16.60;88.10
63094;DHT22;49183;51.380;0.098;2022-07-23T07:08:16;16.80;87.90
63094;DHT22;49183;51.380;0.098;2022-07-23T07:11:17;17.10;87.50
63094;DHT22;49183;51.380;0.098;2022-07-23T07:14:19;17.30;86.90
63094;DHT22;49183;51.380;0.098;2022-07-23T07:17:20;17.50;86.50
63094;DHT22;49183;51.380;0.098;2022-07-23T07:20:21;17.60;86.30
63094;DHT22;49183;51.380;0.098;2022-07-23T07:23:22;17.70;86.00
63094;DHT22;49183;51.380;0.098;2022-07-23T07:26:23;17.80;85.70
63094;DHT22;49183;51.380;0.098;2022-07-23T07:29:24;18.00;85.60
63094;DHT22;49183;51.380;0.098;2022-07-23T07:32:25;18.20;85.10
63094;DHT22;49183;51.380;0.098;2022-07-23T07:35:45;18.40;84.30
63094;DHT22;49183;51.380;0.098;2022-07-23T07:38:39;18.60;84.10
63094;DHT22;49183;51.380;0.098;2022-07-23T07:41:40;18.70;83.50
63094;DHT22;49183;51.380;0.098;2022-07-23T07:44:41;18.70;83.00
63094;DHT22;49183;51.380;0.098;2022-07-23T07:47:42;18.60;83.00
63094;DHT22;49183;51.380;0.098;2022-07-23T07:50:43;18.50;82.70
63094;DHT22;49183;51.380;0.098;2022-07-23T07:53:44;18.50;82.70
63094;DHT22;49183;51.380;0.098;2022-07-23T07:56:45;18.80;82.50
63094;DHT22;49183;51.380;0.098;2022-07-23T07:59:46;19.10;82.10
63094;DHT22;49183;51.380;0.098;2022-07-23T08:02:54;19.50;80.90
63094;DHT22;49183;51.380;0.098;2022-07-23T08:05:56;19.70;79.70
63094;DHT22;49183;51.380;0.098;2022-07-23T08:08:57;19.50;78.80
63094;DHT22;49183;51.380;0.098;2022-07-23T08:11:58;19.50;77.90
63094;DHT22;49183;51.380;0.098;2022-07-23T08:14:59;19.40;77.50
63094;DHT22;49183;51.380;0.098;2022-07-23T08:18:00;19.40;77.10
63094;DHT22;49183;51.380;0.098;2022-07-23T08:21:01;19.40;76.50
63094;DHT22;49183;51.380;0.098;2022-07-23T08:24:02;19.40;76.00
63094;DHT22;49183;51.380;0.098;2022-07-23T08:27:04;19.30;75.10
63094;DHT22;49183;51.380;0.098;2022-07-23T08:30:06;19.20;74.70
63094;DHT22;49183;51.380;0.098;2022-07-23T08:33:09;19.20;74.60
63094;DHT22;49183;51.380;0.098;2022-07-23T08:36:20;19.20;74.20
63094;DHT22;49183;51.380;0.098;2022-07-23T08:39:21;19.30;73.80
63094;DHT22;49183;51.380;0.098;2022-07-23T08:42:22;19.30;73.50
63094;DHT22;49183;51.380;0.098;2022-07-23T08:45:24;19.40;73.40
63094;DHT22;49183;51.380;0.098;2022-07-23T08:48:31;19.50;73.00
63094;DHT22;49183;51.380;0.098;2022-07-23T08:51:32;19.80;73.00
63094;DHT22;49183;51.380;0.098;2022-07-23T08:54:34;20.20;72.50
63094;DHT22;49183;51.380;0.098;2022-07-23T08:57:37;20.60;71.30
63094;DHT22;49183;51.380;0.098;2022-07-23T09:00:38;21.00;70.10
63094;DHT22;49183;51.380;0.098;2022-07-23T09:03:39;21.20;69.10
63094;DHT22;49183;51.380;0.098;2022-07-23T09:06:40;21.40;68.10
63094;DHT22;49183;51.380;0.098;2022-07-23T09:09:41;21.60;67.10
63094;DHT22;49183;51.380;0.098;2022-07-23T09:12:42;22.00;66.50
63094;DHT22;49183;51.380;0.098;2022-07-23T09:15:49;22.30;65.20
63094;DHT22;49183;51.380;0.098;2022-07-23T09:19:02;22.70;63.80
63094;DHT22;49183;51.380;0.098;2022-07-23T09:22:26;22.70;63.40
63094;DHT22;49183;51.380;0.098;2022-07-23T09:25:27;22.80;63.00
63094;DHT22;49183;51.380;0.098;2022-07-23T09:28:28;22.80;62.80
63094;DHT22;49183;51.380;0.098;2022-07-23T09:34:53;22.50;62.50
63094;DHT22;49183;51.380;0.098;2022-07-23T09:38:03;22.30;62.30
63094;DHT22;49183;51.380;0.098;2022-07-23T09:41:09;22.00;61.70
63094;DHT22;49183;51.380;0.098;2022-07-23T09:44:17;21.80;62.00
63094;DHT22;49183;51.380;0.098;2022-07-23T09:47:19;21.50;62.30
63094;DHT22;49183;51.380;0.098;2022-07-23T09:50:21;21.30;62.10
63094;DHT22;49183;51.380;0.098;2022-07-23T09:53:25;21.10;61.40
63094;DHT22;49183;51.380;0.098;2022-07-23T09:56:27;20.80;61.50
63094;DHT22;49183;51.380;0.098;2022-07-23T09:59:36;20.60;62.30
63094;DHT22;49183;51.380;0.098;2022-07-23T10:02:40;20.60;62.90
63094;DHT22;49183;51.380;0.098;2022-07-23T10:05:42;20.50;63.50
63094;DHT22;49183;51.380;0.098;2022-07-23T10:08:46;20.40;63.70
63094;DHT22;49183;51.380;0.098;2022-07-23T10:12:20;20.30;64.30
63094;DHT22;49183;51.380;0.098;2022-07-23T10:15:33;20.10;64.70
63094;DHT22;49183;51.380;0.098;2022-07-23T10:18:34;20.00;65.10
63094;DHT22;49183;51.380;0.098;2022-07-23T10:21:57;19.90;66.00
63094;DHT22;49183;51.380;0.098;2022-07-23T10:28:06;19.90;67.30
63094;DHT22;49183;51.380;0.098;2022-07-23T10:31:20;19.90;68.20
63094;DHT22;49183;51.380;0.098;2022-07-23T10:38:02;19.30;71.00
63094;DHT22;49183;51.380;0.098;2022-07-23T10:41:04;19.10;71.80
63094;DHT22;49183;51.380;0.098;2022-07-23T10:47:11;19.20;72.40
63094;DHT22;49183;51.380;0.098;2022-07-23T10:53:25;19.10;72.00
63094;DHT22;49183;51.380;0.098;2022-07-23T10:56:49;19.10;72.20
63094;DHT22;49183;51.380;0.098;2022-07-23T11:03:27;19.10;72.80
63094;DHT22;49183;51.380;0.098;2022-07-23T11:09:44;19.10;73.00
63094;DHT22;49183;51.380;0.098;2022-07-23T11:12:45;19.10;73.20
63094;DHT22;49183;51.380;0.098;2022-07-23T11:19:05;19.00;73.70
63094;DHT22;49183;51.380;0.098;2022-07-23T11:22:06;19.00;73.80
63094;DHT22;49183;51.380;0.098;2022-07-23T11:25:07;19.10;73.80
63094;DHT22;49183;51.380;0.098;2022-07-23T11:28:14;19.20;73.90
63094;DHT22;49183;51.380;0.098;2022-07-23T11:31:19;19.20;73.80
63094;DHT22;49183;51.380;0.098;2022-07-23T11:37:40;19.20;73.90
63094;DHT22;49183;51.380;0.098;2022-07-23T11:40:44;19.20;74.00
63094;DHT22;49183;51.380;0.098;2022-07-23T11:43:45;19.20;73.90
63094;DHT22;49183;51.380;0.098;2022-07-23T11:47:06;19.40;73.90
63094;DHT22;49183;51.380;0.098;2022-07-23T11:50:08;19.50;73.60
63094;DHT22;49183;51.380;0.098;2022-07-23T11:53:09;19.80;73.30
63094;DHT22;49183;51.380;0.098;2022-07-23T11:56:11;20.20;72.50
63094;DHT22;49183;51.380;0.098;2022-07-23T11:59:12;20.60;71.30
63094;DHT22;49183;51.380;0.098;2022-07-23T12:02:13;20.80;69.90
63094;DHT22;49183;51.380;0.098;2022-07-23T12:05:16;21.10;69.60
63094;DHT22;49183;51.380;0.098;2022-07-23T12:08:17;21.30;68.90
63094;DHT22;49183;51.380;0.098;2022-07-23T12:11:18;21.60;68.00
63094;DHT22;49183;51.380;0.098;2022-07-23T12:14:19;21.70;67.70
63094;DHT22;49183;51.380;0.098;2022-07-23T12:17:21;21.80;67.20
63094;DHT22;49183;51.380;0.098;2022-07-23T12:20:24;21.80;66.90
63094;DHT22;49183;51.380;0.098;2022-07-23T12:23:27;21.70;66.70
63094;DHT22;49183;51.380;0.098;2022-07-23T12:26:27;21.50;66.90
63094;DHT22;49183;51.380;0.098;2022-07-23T12:29:35;21.30;66.90
63094;DHT22;49183;51.380;0.098;2022-07-23T12:32:36;21.10;67.40
63094;DHT22;49183;51.380;0.098;2022-07-23T12:35:45;21.10;67.90
63094;DHT22;49183;51.380;0.098;2022-07-23T12:38:48;21.10;67.90
63094;DHT22;49183;51.380;0.098;2022-07-23T12:41:53;21.10;67.70
63094;DHT22;49183;51.380;0.098;2022-07-23T12:45:09;21.30;67.10
63094;DHT22;49183;51.380;0.098;2022-07-23T12:51:30;21.20;67.60
63094;DHT22;49183;51.380;0.098;2022-07-23T12:54:32;21.20;67.70
63094;DHT22;49183;51.380;0.098;2022-07-23T12:57:46;21.10;67.90
63094;DHT22;49183;51.380;0.098;2022-07-23T13:01:03;21.00;68.30
63094;DHT22;49183;51.380;0.098;2022-07-23T13:07:05;21.20;68.50
63094;DHT22;49183;51.380;0.098;2022-07-23T13:10:07;21.30;68.40
63094;DHT22;49183;51.380;0.098;2022-07-23T13:13:10;21.50;68.10
63094;DHT22;49183;51.380;0.098;2022-07-23T13:16:17;21.80;67.40
63094;DHT22;49183;51.380;0.098;2022-07-23T13:19:19;21.80;66.70
63094;DHT22;49183;51.380;0.098;2022-07-23T13:22:21;22.00;66.90
63094;DHT22;49183;51.380;0.098;2022-07-23T13:25:22;22.10;66.40
63094;DHT22;49183;51.380;0.098;2022-07-23T13:28:24;22.20;66.40
63094;DHT22;49183;51.380;0.098;2022-07-23T13:31:25;22.20;66.20
63094;DHT22;49183;51.380;0.098;2022-07-23T13:34:26;22.20;65.80
63094;DHT22;49183;51.380;0.098;2022-07-23T13:37:29;22.10;66.10
63094;DHT22;49183;51.380;0.098;2022-07-23T13:40:29;22.20;66.50
63094;DHT22;49183;51.380;0.098;2022-07-23T13:43:33;22.30;66.60
63094;DHT22;49183;51.380;0.098;2022-07-23T13:46:34;22.30;66.30
63094;DHT22;49183;51.380;0.098;2022-07-23T13:49:35;22.20;66.40
63094;DHT22;49183;51.380;0.098;2022-07-23T13:52:36;22.00;66.90
63094;DHT22;49183;51.380;0.098;2022-07-23T13:55:38;21.80;67.30
63094;DHT22;49183;51.380;0.098;2022-07-23T13:58:40;21.50;67.80
63094;DHT22;49183;51.380;0.098;2022-07-23T14:01:44;21.30;68.40
63094;DHT22;49183;51.380;0.098;2022-07-23T14:05:07;21.20;68.80
63094;DHT22;49183;51.380;0.098;2022-07-23T14:08:09;21.10;69.20
63094;DHT22;49183;51.380;0.098;2022-07-23T14:11:11;20.90;69.60
63094;DHT22;49183;51.380;0.098;2022-07-23T14:14:15;20.80;69.90
63094;DHT22;49183;51.380;0.098;2022-07-23T14:17:16;20.60;70.20
63094;DHT22;49183;51.380;0.098;2022-07-23T14:20:17;20.50;70.60
63094;DHT22;49183;51.380;0.098;2022-07-23T14:23:18;20.50;70.70
63094;DHT22;49183;51.380;0.098;2022-07-23T14:26:19;20.40;70.80
63094;DHT22;49183;51.380;0.098;2022-07-23T14:29:20;20.50;71.10
63094;DHT22;49183;51.380;0.098;2022-07-23T14:32:22;20.50;71.20
63094;DHT22;49183;51.380;0.098;2022-07-23T14:35:23;20.50;71.20
63094;DHT22;49183;51.380;0.098;2022-07-23T14:38:24;20.60;71.10
63094;DHT22;49183;51.380;0.098;2022-07-23T14:41:25;20.70;71.00
63094;DHT22;49183;51.380;0.098;2022-07-23T14:44:26;21.00;70.40
63094;DHT22;49183;51.380;0.098;2022-07-23T14:47:27;21.20;69.80
63094;DHT22;49183;51.380;0.098;2022-07-23T14:50:32;21.30;69.40
63094;DHT22;49183;51.380;0.098;2022-07-23T14:53:33;21.30;69.50
63094;DHT22;49183;51.380;0.098;2022-07-23T14:56:34;21.30;69.30
63094;DHT22;49183;51.380;0.098;2022-07-23T14:59:35;21.40;69.30
63094;DHT22;49183;51.380;0.098;2022-07-23T15:02:38;21.40;69.30
63094;DHT22;49183;51.380;0.098;2022-07-23T15:05:43;21.30;69.40
63094;DHT22;49183;51.380;0.098;2022-07-23T15:08:45;21.40;69.40
63094;DHT22;49183;51.380;0.098;2022-07-23T15:11:48;21.50;69.20
63094;DHT22;49183;51.380;0.098;2022-07-23T15:14:49;21.70;68.90
63094;DHT22;49183;51.380;0.098;2022-07-23T15:17:55;21.90;68.70
63094;DHT22;49183;51.380;0.098;2022-07-23T15:20:57;22.00;68.30
63094;DHT22;49183;51.380;0.098;2022-07-23T15:23:58;22.00;68.10
63094;DHT22;49183;51.380;0.098;2022-07-23T15:26:59;22.10;68.10
63094;DHT22;49183;51.380;0.098;2022-07-23T15:30:00;22.00;68.00
63094;DHT22;49183;51.380;0.098;2022-07-23T15:33:01;22.00;68.10
63094;DHT22;49183;51.380;0.098;2022-07-23T15:36:07;21.90;68.10
63094;DHT22;49183;51.380;0.098;2022-07-23T15:39:08;21.90;67.90
63094;DHT22;49183;51.380;0.098;2022-07-23T15:42:09;21.80;68.10
63094;DHT22;49183;51.380;0.098;2022-07-23T15:45:10;21.80;68.30
63094;DHT22;49183;51.380;0.098;2022-07-23T15:48:12;21.70;68.50
63094;DHT22;49183;51.380;0.098;2022-07-23T15:51:13;21.60;68.80
63094;DHT22;49183;51.380;0.098;2022-07-23T15:54:14;21.50;69.00
63094;DHT22;49183;51.380;0.098;2022-07-23T15:57:17;21.40;69.30
63094;DHT22;49183;51.380;0.098;2022-07-23T16:00:18;21.30;69.40
63094;DHT22;49183;51.380;0.098;2022-07-23T16:03:19;21.30;69.50
63094;DHT22;49183;51.380;0.098;2022-07-23T16:06:20;21.40;69.00
63094;DHT22;49183;51.380;0.098;2022-07-23T16:09:21;21.40;69.00
63094;DHT22;49183;51.380;0.098;2022-07-23T16:12:22;21.50;68.90
63094;DHT22;49183;51.380;0.098;2022-07-23T16:15:23;21.70;68.50
63094;DHT22;49183;51.380;0.098;2022-07-23T16:18:24;21.80;68.30
63094;DHT22;49183;51.380;0.098;2022-07-23T16:21:26;21.80;68.10
63094;DHT22;49183;51.380;0.098;2022-07-23T16:24:27;21.80;68.10
63094;DHT22;49183;51.380;0.098;2022-07-23T16:27:31;21.70;68.00
63094;DHT22;49183;51.380;0.098;2022-07-23T16:30:33;21.80;68.40
63094;DHT22;49183;51.380;0.098;2022-07-23T16:33:34;21.80;68.50
63094;DHT22;49183;51.380;0.098;2022-07-23T16:36:35;21.80;68.20
63094;DHT22;49183;51.380;0.098;2022-07-23T16:39:37;21.70;68.30
63094;DHT22;49183;51.380;0.098;2022-07-23T16:42:38;21.60;68.50
63094;DHT22;49183;51.380;0.098;2022-07-23T16:45:39;21.50;68.40
63094;DHT22;49183;51.380;0.098;2022-07-23T16:48:40;21.40;68.40
63094;DHT22;49183;51.380;0.098;2022-07-23T16:51:41;21.30;68.90
63094;DHT22;49183;51.380;0.098;2022-07-23T16:54:42;21.20;69.20
63094;DHT22;49183;51.380;0.098;2022-07-23T16:57:43;21.20;69.40
63094;DHT22;49183;51.380;0.098;2022-07-23T17:00:44;21.20;69.50
63094;DHT22;49183;51.380;0.098;2022-07-23T17:03:45;21.10;69.60
63094;DHT22;49183;51.380;0.098;2022-07-23T17:06:46;21.00;69.80
63094;DHT22;49183;51.380;0.098;2022-07-23T17:09:55;20.90;70.10
63094;DHT22;49183;51.380;0.098;2022-07-23T17:12:57;20.90;70.40
63094;DHT22;49183;51.380;0.098;2022-07-23T17:15:59;20.80;70.60
63094;DHT22;49183;51.380;0.098;2022-07-23T17:18:59;20.80;70.80
63094;DHT22;49183;51.380;0.098;2022-07-23T17:22:00;20.80;71.00
63094;DHT22;49183;51.380;0.098;2022-07-23T17:25:03;20.80;71.70
63094;DHT22;49183;51.380;0.098;2022-07-23T17:28:07;20.50;73.40
63094;DHT22;49183;51.380;0.098;2022-07-23T17:31:07;20.30;75.00
63094;DHT22;49183;51.380;0.098;2022-07-23T17:34:09;20.10;76.00
63094;DHT22;49183;51.380;0.098;2022-07-23T17:37:11;19.90;76.70
63094;DHT22;49183;51.380;0.098;2022-07-23T17:40:11;19.80;77.10
63094;DHT22;49183;51.380;0.098;2022-07-23T17:43:12;19.80;77.20
63094;DHT22;49183;51.380;0.098;2022-07-23T17:46:13;19.80;77.40
63094;DHT22;49183;51.380;0.098;2022-07-23T17:49:14;19.90;77.20
63094;DHT22;49183;51.380;0.098;2022-07-23T17:52:15;20.00;77.10
63094;DHT22;49183;51.380;0.098;2022-07-23T17:55:18;20.10;76.90
63094;DHT22;49183;51.380;0.098;2022-07-23T17:58:12;20.20;76.80
63094;DHT22;49183;51.380;0.098;2022-07-23T18:01:14;20.20;76.60
63094;DHT22;49183;51.380;0.098;2022-07-23T18:04:14;20.20;76.60
63094;DHT22;49183;51.380;0.098;2022-07-23T18:07:15;20.20;76.60
63094;DHT22;49183;51.380;0.098;2022-07-23T18:10:16;20.10;76.70
63094;DHT22;49183;51.380;0.098;2022-07-23T18:13:17;20.20;76.50
63094;DHT22;49183;51.380;0.098;2022-07-23T18:16:11;20.20;76.50
63094;DHT22;49183;51.380;0.098;2022-07-23T18:19:05;20.30;76.60
63094;DHT22;49183;51.380;0.098;2022-07-23T18:22:08;20.30;76.40
63094;DHT22;49183;51.380;0.098;2022-07-23T18:25:10;20.30;76.20
63094;DHT22;49183;51.380;0.098;2022-07-23T18:28:12;20.30;76.20
63094;DHT22;49183;51.380;0.098;2022-07-23T18:31:13;20.30;76.00
63094;DHT22;49183;51.380;0.098;2022-07-23T18:34:14;20.30;76.00
63094;DHT22;49183;51.380;0.098;2022-07-23T18:37:14;20.20;76.10
63094;DHT22;49183;51.380;0.098;2022-07-23T18:40:23;20.20;76.30
63094;DHT22;49183;51.380;0.098;2022-07-23T18:43:25;20.10;76.50
63094;DHT22;49183;51.380;0.098;2022-07-23T18:46:27;20.10;76.70
63094;DHT22;49183;51.380;0.098;2022-07-23T18:49:28;20.00;77.00
63094;DHT22;49183;51.380;0.098;2022-07-23T18:52:29;20.00;77.10
63094;DHT22;49183;51.380;0.098;2022-07-23T18:55:31;19.90;77.30
63094;DHT22;49183;51.380;0.098;2022-07-23T18:58:31;19.90;77.50
63094;DHT22;49183;51.380;0.098;2022-07-23T19:01:32;19.90;77.70
63094;DHT22;49183;51.380;0.098;2022-07-23T19:04:33;19.80;78.00
63094;DHT22;49183;51.380;0.098;2022-07-23T19:07:36;19.80;78.10
63094;DHT22;49183;51.380;0.098;2022-07-23T19:10:38;19.70;78.30
63094;DHT22;49183;51.380;0.098;2022-07-23T19:13:38;19.60;78.50
63094;DHT22;49183;51.380;0.098;2022-07-23T19:16:39;19.60;78.70
63094;DHT22;49183;51.380;0.098;2022-07-23T19:19:41;19.60;78.70
63094;DHT22;49183;51.380;0.098;2022-07-23T19:22:42;19.60;78.80
63094;DHT22;49183;51.380;0.098;2022-07-23T19:25:43;19.50;78.90
63094;DHT22;49183;51.380;0.098;2022-07-23T19:28:44;19.50;78.90
63094;DHT22;49183;51.380;0.098;2022-07-23T19:31:45;19.50;78.90
63094;DHT22;49183;51.380;0.098;2022-07-23T19:34:47;19.50;79.00
63094;DHT22;49183;51.380;0.098;2022-07-23T19:37:47;19.50;79.10
63094;DHT22;49183;51.380;0.098;2022-07-23T19:40:49;19.50;79.20
63094;DHT22;49183;51.380;0.098;2022-07-23T19:43:50;19.40;79.20
63094;DHT22;49183;51.380;0.098;2022-07-23T19:46:52;19.40;79.20